Flight Track Log - Related Links

Times and Time Zones

All times are in EDT time to prevent confusion due to time zone crossing. See the VH-CKF flight status page for this flight to view local times or setup timezone preferences in your user account.

Time Position Orientation Groundspeed Altitude Reporting Facility
EDT Latitude Longitude Course Direction KTS MPH feet Rate Location/Type
Mon 01:03:16 AM -32.0645 115.8165 295° West 62 71 1,500  Level Aus ATC (RADAR)
Mon 01:03:50 AM -32.0599 115.8045 295° West 68 78 1,600 87 Climbing Aus ATC (RADAR)
Mon 01:04:25 AM -32.0550 115.7908 293° West 74 85 1,600 -86 Level Aus ATC (RADAR)
Mon 01:05:00 AM -32.0492 115.7781 298° West 74 85 1,500 -86 Descending Aus ATC (RADAR)
Mon 01:05:35 AM -32.0375 115.7724 338° Northwest 76 87 1,500  Level Aus ATC (RADAR)
Mon 01:06:40 AM -32.0167 115.7649 343° North 71 82 1,500  Level Aus ATC (RADAR)
Mon 01:07:05 AM -32.0085 115.7633 351° North 71 82 1,500  Level Aus ATC (RADAR)
Mon 01:07:40 AM -31.9990 115.7706 33° Northeast 70 81 1,500 80 Level Aus ATC (RADAR)
Mon 01:08:20 AM -31.9922 115.7839 59° Northeast 69 79 1,600 75 Climbing Aus ATC (RADAR)
Mon 01:09:00 AM -31.9868 115.7979 65° Northeast 70 81 1,600 -75 Level Aus ATC (RADAR)
Mon 01:09:40 AM -31.9804 115.8132 64° Northeast 77 89 1,500  Descending Aus ATC (RADAR)
Mon 01:10:05 AM -31.9757 115.8227 60° Northeast 78 90 1,600 100 Climbing Aus ATC (RADAR)
Mon 01:10:40 AM -31.9698 115.8370 64° Northeast 81 93 1,600 -114 Level Aus ATC (RADAR)
Mon 01:11:50 AM -31.9622 115.8675 74° East 82 94 1,400 -189 Descending Aus ATC (RADAR)
Mon 01:12:15 AM -31.9532 115.8715 21° North 84 97 1,300  Descending Aus ATC (RADAR)
Mon 01:12:50 AM -31.9455 115.8615 312° West 69 79 1,400 75 Climbing Aus ATC (RADAR)
Mon 01:13:35 AM -31.9404 115.8460 291° West 65 75 1,400 75 Level Aus ATC (RADAR)
Mon 01:14:10 AM -31.9385 115.8329 280° West 68 78 1,500 152 Climbing Aus ATC (RADAR)
Mon 01:14:54 AM -31.9365 115.8158 278° West 67 77 1,600 102 Climbing Aus ATC (RADAR)
Mon 01:15:09 AM -31.9361 115.8103 275° West 66 76 1,600  Level Aus ATC (RADAR)
Mon 01:18:30 AM -31.9897 115.7992 190° South 1,500 -30 Descending Aus ATC (Calculated)
Mon 01:20:00 AM -31.9979 115.7975 190° South  Level FlightAware Approximate
Mon 01:21:00 AM -32.0701 115.7825 10° North 1,500  Level Aus ATC (Calculated)
Mon 01:21:00 AM -32.0033 115.7964 190° South  Level FlightAware Approximate
Mon 01:22:00 AM -32.0756 115.7814 190° South  Level FlightAware Approximate
Mon 01:23:00 AM -32.0810 115.7803 190° South  Level FlightAware Approximate
Mon 01:24:00 AM -32.0865 115.7791 190° South  Level FlightAware Approximate
Mon 01:25:00 AM -32.0919 115.7780 190° South  Level FlightAware Approximate
Mon 01:25:24 AM -32.0838 115.8319 220° Southwest 100  Level Aus ATC (Calculated)
Mon 01:27:00 AM -32.0906 115.8252 220° Southwest  Level FlightAware Approximate
Mon 01:28:00 AM -32.0948 115.8210 220° Southwest  Level FlightAware Approximate
Mon 01:28:49 AM -32.0906 115.8565 256° West 100  Level Aus ATC (Calculated)
Mon 01:29:00 AM -32.0991 115.8168 220° Southwest  Level FlightAware Approximate
Mon 01:30:00 AM -32.0947 115.8504 232° Southwest  Level FlightAware Approximate
Mon 01:31:00 AM -32.0981 115.8453 232° Southwest  Level FlightAware Approximate
Mon 01:32:00 AM -32.1015 115.8401 232° Southwest  Level FlightAware Approximate
Mon 01:33:00 AM -32.1049 115.8350 232° Southwest  Level FlightAware Approximate
Mon 01:34:00 AM -32.1083 115.8298 232° Southwest  Level FlightAware Approximate
Mon 01:35:00 AM -32.1117 115.8247 232° Southwest  Level FlightAware Approximate
Mon 01:36:00 AM -32.1151 115.8195 232° Southwest  Level FlightAware Approximate
Mon 01:37:00 AM -32.1185 115.8144 232° Southwest  Level FlightAware Approximate
Mon 01:38:00 AM -32.1219 115.8092 232° Southwest  Level FlightAware Approximate
Mon 01:39:00 AM -32.1253 115.8041 232° Southwest  Level FlightAware Approximate
Mon 01:40:00 AM -32.1287 115.7990 232° Southwest  Level FlightAware Approximate
Mon 01:41:00 AM -32.1321 115.7938 232° Southwest  Level FlightAware Approximate
Mon 01:42:00 AM -32.1355 115.7887 232° Southwest  Level FlightAware Approximate
Mon 01:43:00 AM -32.1389 115.7835 232° Southwest  Level FlightAware Approximate
Mon 01:44:00 AM -32.1423 115.7784 232° Southwest  Level FlightAware Approximate
Mon 01:45:00 AM -32.1457 115.7732 232° Southwest  Level FlightAware Approximate
Mon 01:46:00 AM -32.1491 115.7681 232° Southwest  Level FlightAware Approximate
Mon 01:47:00 AM -32.1525 115.7629 232° Southwest  Level FlightAware Approximate
Mon 01:48:00 AM -32.1491 115.7681 52° Northeast  Level FlightAware Approximate
Mon 01:49:00 AM -32.1525 115.7629 232° Southwest  Level FlightAware Approximate
Mon 01:50:00 AM -32.1491 115.7681 52° Northeast  Level FlightAware Approximate
Mon 01:51:00 AM -32.1525 115.7629 232° Southwest  Level FlightAware Approximate
Mon 01:52:00 AM -32.1491 115.7681 52° Northeast  Level FlightAware Approximate
Mon 01:53:00 AM -32.1525 115.7629 232° Southwest  Level FlightAware Approximate
Mon 01:54:00 AM -32.1491 115.7681 52° Northeast  Level FlightAware Approximate
Mon 01:55:00 AM -32.1525 115.7629 232° Southwest  Level FlightAware Approximate
Mon 01:56:00 AM -32.1491 115.7681 52° Northeast  Level FlightAware Approximate
Mon 01:57:00 AM -32.1525 115.7629 232° Southwest  Level FlightAware Approximate
Mon 01:58:00 AM -32.1491 115.7681 52° Northeast  Level FlightAware Approximate
Mon 01:59:00 AM -32.1506 115.7658 190° South  Level FlightAware Approximate
Mon 02:00:00 AM -32.1479 115.7716 190° South  Level Estimated
Mon 02:01:00 AM -32.1506 115.7658 190° South  Level FlightAware Approximate
Mon 02:02:00 AM -32.1479 115.7716 190° South  Level Estimated
Mon 02:03:00 AM -32.1506 115.7658 190° South  Level FlightAware Approximate
Mon 02:04:00 AM -32.1479 115.7716 190° South  Level Estimated
Mon 02:05:00 AM -32.1506 115.7658 190° South  Level FlightAware Approximate
Mon 02:06:00 AM -32.1479 115.7716 190° South  Level Estimated
Mon 02:07:00 AM -32.1506 115.7658 190° South  Level FlightAware Approximate
Mon 02:08:00 AM -32.1479 115.7716 190° South  Level Estimated
Mon 02:09:00 AM -32.1506 115.7658 190° South  Level FlightAware Approximate
Mon 02:10:00 AM -32.1479 115.7716 190° South  Level Estimated
Mon 02:11:00 AM -32.1506 115.7658 190° South  Level FlightAware Approximate
Mon 02:12:00 AM -32.1479 115.7716 190° South  Level Estimated
Mon 02:13:00 AM -32.1506 115.7658 190° South  Level FlightAware Approximate
Mon 02:14:00 AM -32.1479 115.7716 190° South  Level Estimated
Mon 02:15:00 AM -32.1506 115.7658 190° South  Level FlightAware Approximate
Mon 02:16:00 AM -32.1479 115.7716 190° South  Level Estimated
Mon 02:17:00 AM -32.1506 115.7658 190° South  Level FlightAware Approximate
Mon 02:18:00 AM -32.1479 115.7716 190° South  Level Estimated
Mon 02:19:00 AM -32.1506 115.7658 190° South  Level FlightAware Approximate
Mon 02:20:00 AM -32.1479 115.7716 190° South  Level Estimated
Mon 02:21:00 AM -32.1506 115.7658 190° South  Level FlightAware Approximate
Mon 02:22:00 AM -32.1479 115.7716 190° South  Level Estimated
Mon 02:23:00 AM -32.1506 115.7658 190° South  Level FlightAware Approximate
Mon 02:24:00 AM -32.1479 115.7716 190° South  Level Estimated
Mon 02:25:00 AM -32.1506 115.7658 190° South  Level FlightAware Approximate
Mon 02:26:00 AM -32.1479 115.7716 190° South  Level Estimated
Mon 02:27:00 AM -32.1506 115.7658 190° South  Level FlightAware Approximate
Mon 02:28:00 AM -32.1479 115.7716 190° South  Level Estimated
Mon 02:29:00 AM -32.1506 115.7658 190° South  Level FlightAware Approximate
Mon 02:30:00 AM -32.1479 115.7716 190° South  Level Estimated
Mon 02:31:00 AM -32.1506 115.7658 190° South  Level FlightAware Approximate
Mon 02:32:00 AM -32.1479 115.7716 190° South  Level Estimated
Mon 02:33:00 AM -32.1506 115.7658 190° South  Level FlightAware Approximate
Mon 02:34:00 AM -32.1479 115.7716 190° South  Level Estimated
Mon 02:35:00 AM -32.1506 115.7658 190° South  Level FlightAware Approximate
Mon 02:36:00 AM -32.1479 115.7716 190° South  Level Estimated

Login

Don't have an account? Register now (free) for customized features, flight alerts, and more!